createdAt,value
2022-09-12T00:00:29.633Z,17.73
2022-09-12T00:02:02.794Z,17.69
2022-09-12T00:03:35.195Z,17.67
2022-09-12T00:05:10.222Z,17.65
2022-09-12T00:06:43.691Z,17.61
2022-09-12T00:08:16.853Z,17.63
2022-09-12T00:09:50.088Z,17.62
2022-09-12T00:11:23.745Z,17.66
2022-09-12T00:12:57.124Z,17.68
2022-09-12T00:14:30.473Z,17.67
2022-09-12T00:16:03.053Z,17.65
2022-09-12T00:17:37.136Z,17.67
2022-09-12T00:19:11.671Z,17.70
2022-09-12T00:20:46.460Z,17.70
2022-09-12T00:22:19.785Z,17.71
2022-09-12T00:23:53.590Z,17.72
2022-09-12T00:25:26.955Z,17.73
2022-09-12T00:27:00.183Z,17.71
2022-09-12T00:28:33.989Z,17.72
2022-09-12T00:30:08.394Z,17.75
2022-09-12T00:31:41.903Z,17.74
2022-09-12T00:33:15.511Z,17.74
2022-09-12T00:34:48.667Z,17.78
2022-09-12T00:36:24.699Z,17.81
2022-09-12T00:37:58.024Z,17.75
2022-09-12T00:39:31.255Z,17.71
2022-09-12T00:41:04.470Z,17.71
2022-09-12T00:42:37.935Z,17.66
2022-09-12T00:44:53.956Z,17.68
2022-09-12T00:46:36.414Z,17.63
2022-09-12T00:48:21.263Z,17.59
2022-09-12T00:50:01.114Z,17.54
2022-09-12T00:51:38.056Z,17.51
2022-09-12T00:53:12.460Z,17.49
2022-09-12T00:54:51.744Z,17.48
2022-09-12T00:56:25.634Z,17.46
2022-09-12T00:58:03.144Z,17.50
2022-09-12T00:59:39.916Z,17.53
2022-09-12T01:01:13.748Z,17.59
2022-09-12T01:02:51.934Z,17.64
2022-09-12T01:04:27.103Z,17.67
2022-09-12T01:06:08.626Z,17.67
2022-09-12T01:07:44.908Z,17.68
2022-09-12T01:09:20.826Z,17.66
2022-09-12T01:10:54.123Z,17.65
2022-09-12T01:12:27.984Z,17.62
2022-09-12T01:14:00.496Z,17.67
2022-09-12T01:15:34.055Z,17.62
2022-09-12T01:17:06.418Z,17.59
2022-09-12T01:18:56.439Z,17.64
2022-09-12T01:20:51.375Z,17.69
2022-09-12T01:22:41.808Z,17.66
2022-09-12T01:24:53.513Z,17.55
2022-09-12T01:26:53.165Z,17.58
2022-09-12T01:28:46.899Z,17.63
2022-09-12T01:30:25.122Z,17.64
2022-09-12T01:32:06.919Z,17.66
2022-09-12T01:33:54.592Z,17.69
2022-09-12T01:35:35.534Z,17.66
2022-09-12T01:37:16.975Z,17.63
2022-09-12T01:38:53.385Z,17.60
2022-09-12T01:40:34.956Z,17.61
2022-09-12T01:42:17.325Z,17.60
2022-09-12T01:43:56.042Z,17.57
2022-09-12T01:45:39.022Z,17.51
2022-09-12T01:47:16.453Z,17.45
2022-09-12T01:48:57.465Z,17.47
2022-09-12T01:50:35.090Z,17.49
2022-09-12T01:52:15.620Z,17.51
2022-09-12T01:53:53.245Z,17.51
2022-09-12T01:55:31.645Z,17.49
2022-09-12T01:57:11.580Z,17.47
2022-09-12T01:58:47.079Z,17.44
2022-09-12T02:00:21.233Z,17.45
2022-09-12T02:02:03.289Z,17.43
2022-09-12T02:03:41.740Z,17.41
2022-09-12T02:05:19.868Z,17.39
2022-09-12T02:06:59.344Z,17.40
2022-09-12T02:08:36.340Z,17.42
2022-09-12T02:10:14.643Z,17.39
2022-09-12T02:11:51.706Z,17.35
2022-09-12T02:13:28.421Z,17.37
2022-09-12T02:15:05.047Z,17.37
2022-09-12T02:16:41.977Z,17.35
2022-09-12T02:18:19.552Z,17.36
2022-09-12T02:19:56.875Z,17.37
2022-09-12T02:21:33.290Z,17.36
2022-09-12T02:23:11.339Z,17.35
2022-09-12T02:24:48.801Z,17.38
2022-09-12T02:26:25.933Z,17.39
2022-09-12T02:28:05.281Z,17.37
2022-09-12T02:29:37.576Z,17.35
2022-09-12T02:31:18.245Z,17.36
2022-09-12T02:33:01.537Z,17.37
2022-09-12T02:34:49.659Z,17.35
2022-09-12T02:36:34.727Z,17.33
2022-09-12T02:38:12.574Z,17.30
2022-09-12T02:39:46.229Z,17.27
2022-09-12T02:41:21.862Z,17.26
2022-09-12T02:42:55.262Z,17.22
2022-09-12T02:44:30.050Z,17.19
2022-09-12T02:46:03.237Z,17.17
2022-09-12T02:47:43.007Z,17.16
2022-09-12T02:49:17.257Z,17.15
2022-09-12T02:50:52.101Z,17.12
2022-09-12T02:52:26.722Z,17.08
2022-09-12T02:54:01.061Z,17.08
2022-09-12T02:55:36.004Z,17.07
2022-09-12T02:57:21.909Z,17.07
2022-09-12T02:59:00.760Z,17.05
2022-09-12T03:00:39.223Z,17.02
2022-09-12T03:02:24.532Z,17.01
2022-09-12T03:04:19.676Z,17.02
2022-09-12T03:05:59.122Z,17.00
2022-09-12T03:07:47.476Z,16.95
2022-09-12T03:09:28.440Z,16.89
2022-09-12T03:11:24.010Z,16.88
2022-09-12T03:13:09.223Z,16.83
2022-09-12T03:15:06.111Z,16.85
2022-09-12T03:16:49.760Z,16.83
2022-09-12T03:18:40.588Z,16.81
2022-09-12T03:20:19.435Z,16.79
2022-09-12T03:22:04.702Z,16.76
2022-09-12T03:23:44.471Z,16.69
2022-09-12T03:25:21.840Z,16.69
2022-09-12T03:26:59.730Z,16.71
2022-09-12T03:28:35.910Z,16.70
2022-09-12T03:30:11.009Z,16.69
2022-09-12T03:31:52.536Z,16.69
2022-09-12T03:33:27.181Z,16.65
2022-09-12T03:35:00.667Z,16.65
2022-09-12T03:36:34.108Z,16.61
2022-09-12T03:38:09.083Z,16.63
2022-09-12T03:39:42.379Z,16.60
2022-09-12T03:41:15.698Z,16.62
2022-09-12T03:42:48.942Z,16.65
2022-09-12T03:44:22.124Z,16.68
2022-09-12T03:45:54.358Z,16.73
2022-09-12T03:47:27.641Z,16.75
2022-09-12T03:49:00.968Z,16.82
2022-09-12T03:50:35.068Z,16.88
2022-09-12T03:52:08.170Z,16.93
2022-09-12T03:53:43.042Z,16.93
2022-09-12T03:55:16.511Z,16.98
2022-09-12T03:56:49.647Z,17.00
2022-09-12T03:58:22.813Z,17.04
2022-09-12T03:59:56.094Z,17.04
2022-09-12T04:01:28.603Z,17.07
2022-09-12T04:03:01.848Z,17.07
2022-09-12T04:04:35.722Z,17.09
2022-09-12T04:06:10.679Z,17.10
2022-09-12T04:07:44.153Z,17.12
2022-09-12T04:09:18.711Z,17.10
2022-09-12T04:10:50.852Z,17.07
2022-09-12T04:12:24.234Z,17.07
2022-09-12T04:13:57.422Z,17.06
2022-09-12T04:15:30.610Z,17.05
2022-09-12T04:17:02.819Z,17.07
2022-09-12T04:18:36.866Z,17.11
2022-09-12T04:20:10.455Z,17.14
2022-09-12T04:21:43.729Z,17.22
2022-09-12T04:23:15.821Z,17.25
2022-09-12T04:24:50.685Z,17.30
2022-09-12T04:26:24.170Z,17.37
2022-09-12T04:27:57.385Z,17.41
2022-09-12T04:29:31.586Z,17.43
2022-09-12T04:31:07.633Z,17.45
2022-09-12T04:32:41.507Z,17.45
2022-09-12T04:34:15.257Z,17.43
2022-09-12T04:35:48.722Z,17.47
2022-09-12T04:37:23.755Z,17.52
2022-09-12T04:38:57.361Z,17.55
2022-09-12T04:40:31.640Z,17.62
2022-09-12T04:42:04.967Z,17.69
2022-09-12T04:43:38.376Z,17.74
2022-09-12T04:45:13.163Z,17.80
2022-09-12T04:46:49.719Z,17.90
2022-09-12T04:48:22.987Z,18.00
2022-09-12T04:49:57.126Z,18.22
2022-09-12T04:51:31.693Z,18.55
2022-09-12T04:53:04.840Z,18.93
2022-09-12T04:54:38.673Z,19.31
2022-09-12T04:56:13.452Z,19.66
2022-09-12T04:57:46.011Z,19.95
2022-09-12T04:59:20.789Z,20.24
2022-09-12T05:00:53.955Z,20.39
2022-09-12T05:02:27.763Z,20.61
2022-09-12T05:04:00.327Z,20.91
2022-09-12T05:05:33.554Z,21.21
2022-09-12T05:07:07.031Z,21.60
2022-09-12T05:08:39.415Z,22.10
2022-09-12T05:10:12.751Z,22.57
2022-09-12T05:12:04.906Z,23.03
2022-09-12T05:13:39.078Z,23.17
2022-09-12T05:15:12.884Z,23.43
2022-09-12T05:16:49.399Z,23.68
2022-09-12T05:18:22.910Z,23.77
2022-09-12T05:19:56.045Z,24.00
2022-09-12T05:21:29.498Z,24.21
2022-09-12T05:23:02.819Z,24.22
2022-09-12T05:24:37.918Z,24.15
2022-09-12T05:26:13.769Z,24.32
2022-09-12T05:27:50.553Z,24.29
2022-09-12T05:29:25.191Z,24.44
2022-09-12T05:31:02.932Z,24.75
2022-09-12T05:32:36.333Z,25.00
2022-09-12T05:34:10.412Z,25.15
2022-09-12T05:35:42.719Z,24.81
2022-09-12T05:37:15.892Z,24.74
2022-09-12T05:38:49.445Z,24.78
2022-09-12T05:40:23.146Z,24.97
2022-09-12T05:41:56.467Z,24.66
2022-09-12T05:43:31.465Z,24.67
2022-09-12T05:45:04.964Z,24.75
2022-09-12T05:46:40.635Z,25.01
2022-09-12T05:48:13.928Z,25.12
2022-09-12T05:49:49.197Z,25.20
2022-09-12T05:51:25.538Z,25.02
2022-09-12T05:52:59.153Z,24.66
2022-09-12T05:54:34.365Z,24.51
2022-09-12T05:56:08.763Z,24.18
2022-09-12T05:57:45.922Z,24.11
2022-09-12T05:59:22.459Z,23.85
2022-09-12T06:00:56.236Z,24.06
2022-09-12T06:02:29.480Z,24.32
2022-09-12T06:04:05.224Z,24.11
2022-09-12T06:05:38.505Z,24.07
2022-09-12T06:07:11.741Z,24.30
2022-09-12T06:08:47.405Z,24.45
2022-09-12T06:10:23.150Z,24.71
2022-09-12T06:11:56.441Z,24.92
2022-09-12T06:13:30.065Z,25.20
2022-09-12T06:15:04.982Z,24.76
2022-09-12T06:16:38.941Z,24.75
2022-09-12T06:18:12.268Z,25.23
2022-09-12T06:19:45.732Z,25.49
2022-09-12T06:21:19.391Z,25.58
2022-09-12T06:22:54.773Z,25.60
2022-09-12T06:24:27.974Z,25.43
2022-09-12T06:26:02.036Z,25.37
2022-09-12T06:27:35.203Z,25.43
2022-09-12T06:29:08.824Z,24.93
2022-09-12T06:30:43.649Z,25.12
2022-09-12T06:32:16.959Z,25.29
2022-09-12T06:33:51.956Z,24.77
2022-09-12T06:35:25.089Z,24.39
2022-09-12T06:36:58.484Z,23.82
2022-09-12T06:38:31.976Z,23.55
2022-09-12T06:40:05.615Z,23.31
2022-09-12T06:41:43.102Z,23.12
2022-09-12T06:43:17.427Z,23.12
2022-09-12T06:44:51.068Z,23.18
2022-09-12T06:46:25.874Z,22.88
2022-09-12T06:47:59.178Z,23.23
2022-09-12T06:49:32.378Z,23.63
2022-09-12T06:51:07.695Z,24.26
2022-09-12T06:52:40.817Z,24.45
2022-09-12T06:54:15.458Z,24.64
2022-09-12T06:55:48.839Z,25.11
2022-09-12T06:57:22.002Z,25.60
2022-09-12T06:58:57.775Z,25.21
2022-09-12T07:00:31.402Z,25.24
2022-09-12T07:02:06.098Z,25.24
2022-09-12T07:03:40.395Z,25.08
2022-09-12T07:05:14.068Z,25.19
2022-09-12T07:06:47.851Z,25.29
2022-09-12T07:08:21.079Z,25.27
2022-09-12T07:09:54.265Z,25.15
2022-09-12T07:11:30.620Z,25.28
2022-09-12T07:13:03.819Z,25.48
2022-09-12T07:14:36.985Z,26.01
2022-09-12T07:16:14.854Z,25.89
2022-09-12T07:17:52.188Z,25.88
2022-09-12T07:19:25.696Z,25.91
2022-09-12T07:21:01.581Z,26.06
2022-09-12T07:22:34.975Z,26.50
2022-09-12T07:24:09.889Z,26.76
2022-09-12T07:25:43.098Z,26.40
2022-09-12T07:27:16.594Z,25.67
2022-09-12T07:28:53.507Z,25.34
2022-09-12T07:30:27.073Z,25.50
2022-09-12T07:32:01.765Z,25.51
2022-09-12T07:33:37.509Z,26.08
2022-09-12T07:35:11.205Z,26.44
2022-09-12T07:36:44.393Z,26.92
2022-09-12T07:38:17.898Z,26.62
2022-09-12T07:39:51.266Z,26.62
2022-09-12T07:41:26.476Z,27.03
2022-09-12T07:42:59.612Z,26.96
2022-09-12T07:44:32.831Z,26.53
2022-09-12T07:46:06.767Z,26.09
2022-09-12T07:47:41.222Z,26.32
2022-09-12T07:49:15.988Z,26.49
2022-09-12T07:50:49.258Z,26.03
2022-09-12T07:52:22.549Z,25.90
2022-09-12T07:53:56.501Z,25.98
2022-09-12T07:55:29.764Z,26.26
2022-09-12T07:57:02.971Z,26.67
2022-09-12T07:58:37.330Z,27.02
2022-09-12T08:00:11.415Z,26.79
2022-09-12T08:01:49.524Z,25.85
2022-09-12T08:03:22.696Z,25.66
2022-09-12T08:04:57.553Z,25.59
2022-09-12T08:06:32.273Z,25.46
2022-09-12T08:08:05.782Z,25.53
2022-09-12T08:09:38.916Z,26.02
2022-09-12T08:11:14.561Z,26.02
2022-09-12T08:12:47.734Z,25.95
2022-09-12T08:14:21.886Z,26.10
2022-09-12T08:16:00.019Z,26.38
2022-09-12T08:17:33.491Z,26.57
2022-09-12T08:19:06.774Z,27.09
2022-09-12T08:20:41.334Z,27.17
2022-09-12T08:22:14.605Z,26.88
2022-09-12T08:23:49.536Z,26.31
2022-09-12T08:25:23.027Z,26.66
2022-09-12T08:26:56.152Z,27.34
2022-09-12T08:28:29.379Z,27.87
2022-09-12T08:30:02.641Z,28.17
2022-09-12T08:31:37.006Z,28.05
2022-09-12T08:33:10.151Z,26.68
2022-09-12T08:34:43.321Z,26.71
2022-09-12T08:36:20.121Z,26.55
2022-09-12T08:37:53.387Z,26.25
2022-09-12T08:39:26.628Z,25.58
2022-09-12T08:41:06.349Z,25.31
2022-09-12T08:42:53.604Z,25.68
2022-09-12T08:44:41.063Z,25.75
2022-09-12T08:46:22.765Z,25.98
2022-09-12T08:47:58.088Z,26.28
2022-09-12T08:49:34.874Z,26.78
2022-09-12T08:51:14.149Z,26.96
2022-09-12T08:52:58.777Z,26.72
2022-09-12T08:54:33.664Z,26.27
2022-09-12T08:56:09.334Z,25.91
2022-09-12T08:57:42.531Z,25.35
2022-09-12T08:59:16.093Z,25.12
2022-09-12T09:00:56.626Z,24.99
2022-09-12T09:03:10.515Z,25.03
2022-09-12T09:04:53.639Z,25.57
2022-09-12T09:06:42.305Z,25.49
2022-09-12T09:08:28.121Z,25.61
2022-09-12T09:10:24.550Z,25.80
2022-09-12T09:12:08.382Z,25.65
2022-09-12T09:14:12.985Z,25.67
2022-09-12T09:15:57.894Z,25.55
2022-09-12T09:17:35.960Z,25.70
2022-09-12T09:19:17.526Z,25.88
2022-09-12T09:20:54.822Z,26.18
2022-09-12T09:22:39.597Z,26.54
2022-09-12T09:24:18.071Z,26.41
2022-09-12T09:25:57.928Z,25.97
2022-09-12T09:27:40.769Z,25.68
2022-09-12T09:29:19.190Z,25.47
2022-09-12T09:30:52.672Z,25.31
2022-09-12T09:32:29.472Z,25.30
2022-09-12T09:34:02.795Z,25.42
2022-09-12T09:35:45.048Z,25.43
2022-09-12T09:37:21.826Z,25.33
2022-09-12T09:39:05.842Z,25.01
2022-09-12T09:40:51.432Z,25.10
2022-09-12T09:42:34.914Z,25.14
2022-09-12T09:45:47.914Z,25.08
2022-09-12T09:47:21.619Z,25.28
2022-09-12T09:48:56.237Z,25.11
2022-09-12T09:50:30.612Z,25.08
2022-09-12T09:52:05.990Z,24.94
2022-09-12T09:53:46.438Z,24.82
2022-09-12T09:55:24.643Z,24.70
2022-09-12T09:56:59.330Z,24.76
2022-09-12T09:58:33.985Z,24.72
2022-09-12T10:00:25.957Z,25.06
2022-09-12T10:02:03.811Z,25.32
2022-09-12T10:03:40.041Z,25.53
2022-09-12T10:05:18.604Z,25.53
2022-09-12T10:06:54.718Z,25.38
2022-09-12T10:08:30.182Z,25.09
2022-09-12T10:10:14.585Z,24.76
2022-09-12T10:11:48.433Z,24.65
2022-09-12T10:13:28.804Z,24.26
2022-09-12T10:15:15.322Z,24.02
2022-09-12T10:16:53.454Z,23.85
2022-09-12T10:18:38.807Z,23.83
2022-09-12T10:20:31.221Z,23.87
2022-09-12T10:22:05.985Z,23.81
2022-09-12T10:23:41.362Z,23.82
2022-09-12T10:25:20.059Z,23.93
2022-09-12T10:26:56.945Z,24.05
2022-09-12T10:28:37.420Z,24.07
2022-09-12T10:30:19.802Z,24.26
2022-09-12T10:31:56.441Z,24.32
2022-09-12T10:33:31.730Z,24.56
2022-09-12T10:35:09.188Z,24.74
2022-09-12T10:36:42.583Z,24.54
2022-09-12T10:38:23.449Z,24.44
2022-09-12T10:39:59.096Z,24.46
2022-09-12T10:41:38.534Z,24.54
2022-09-12T10:43:18.941Z,24.49
2022-09-12T10:44:55.743Z,24.50
2022-09-12T10:46:31.352Z,24.50
2022-09-12T10:48:23.990Z,24.55
2022-09-12T10:50:23.065Z,24.65
2022-09-12T10:51:59.698Z,24.71
2022-09-12T10:53:42.663Z,24.82
2022-09-12T10:55:16.793Z,24.77
2022-09-12T10:57:10.863Z,24.82
2022-09-12T10:58:59.349Z,24.92
2022-09-12T11:00:41.283Z,24.84
2022-09-12T11:02:22.334Z,24.89
2022-09-12T11:04:16.310Z,25.02
2022-09-12T11:05:56.560Z,25.05
2022-09-12T11:07:40.690Z,25.21
2022-09-12T11:09:22.651Z,25.32
2022-09-12T11:11:02.315Z,25.26
2022-09-12T11:12:42.746Z,25.27
2022-09-12T11:14:29.676Z,25.41
2022-09-12T11:16:25.254Z,25.58
2022-09-12T11:18:07.330Z,25.68
2022-09-12T11:19:59.746Z,25.21
2022-09-12T11:21:49.145Z,24.98
2022-09-12T11:23:46.528Z,24.81
2022-09-12T11:25:31.675Z,24.73
2022-09-12T11:27:25.629Z,24.67
2022-09-12T11:29:07.750Z,24.72
2022-09-12T11:30:52.880Z,24.64
2022-09-12T11:33:07.746Z,24.60
2022-09-12T11:34:55.945Z,24.55
2022-09-12T11:36:36.561Z,24.50
2022-09-12T11:38:24.721Z,24.43
2022-09-12T11:40:01.255Z,24.43
2022-09-12T11:41:39.117Z,24.58
2022-09-12T11:43:35.656Z,24.59
2022-09-12T11:45:18.037Z,24.70
2022-09-12T11:46:52.227Z,24.68
2022-09-12T11:48:35.423Z,24.59
2022-09-12T11:50:20.384Z,24.65
2022-09-12T11:51:58.997Z,24.71
2022-09-12T11:53:38.840Z,24.72
2022-09-12T11:55:18.895Z,24.79
2022-09-12T11:56:56.863Z,24.83
2022-09-12T11:58:30.723Z,24.80
2022-09-12T12:00:07.972Z,24.90
2022-09-12T12:01:48.555Z,24.96
2022-09-12T12:03:29.707Z,25.21
2022-09-12T12:05:21.845Z,25.30
2022-09-12T12:07:02.892Z,25.25
2022-09-12T12:08:41.277Z,25.15
2022-09-12T12:10:28.274Z,25.14
2022-09-12T12:12:06.738Z,25.07
2022-09-12T12:13:46.742Z,25.03
2022-09-12T12:15:21.235Z,25.10
2022-09-12T12:16:54.954Z,25.27
2022-09-12T12:18:30.366Z,25.46
2022-09-12T12:20:08.674Z,25.54
2022-09-12T12:21:44.699Z,25.35
2022-09-12T12:23:27.472Z,25.30
2022-09-12T12:25:27.569Z,25.16
2022-09-12T12:27:04.705Z,25.01
2022-09-12T12:29:00.588Z,24.80
2022-09-12T12:31:05.730Z,24.58
2022-09-12T12:32:39.094Z,24.46
2022-09-12T12:34:28.831Z,24.46
2022-09-12T12:36:07.236Z,24.57
2022-09-12T12:37:56.025Z,24.54
2022-09-12T12:40:01.571Z,24.42
2022-09-12T12:41:46.176Z,24.47
2022-09-12T12:43:34.710Z,24.56
2022-09-12T12:45:50.290Z,24.74
2022-09-12T12:47:25.336Z,24.94
2022-09-12T12:49:20.619Z,25.07
2022-09-12T12:50:53.103Z,25.16
2022-09-12T12:52:29.232Z,25.29
2022-09-12T12:54:08.693Z,25.35
2022-09-12T12:55:50.320Z,25.32
2022-09-12T12:57:32.146Z,25.46
2022-09-12T12:59:14.564Z,25.61
2022-09-12T13:00:48.074Z,25.59
2022-09-12T13:02:28.505Z,25.41
2022-09-12T13:04:04.925Z,25.13
2022-09-12T13:05:43.826Z,24.93
2022-09-12T13:07:26.415Z,24.96
2022-09-12T13:09:03.580Z,24.97
2022-09-12T13:10:39.351Z,25.10
2022-09-12T13:12:19.682Z,25.12
2022-09-12T13:13:59.326Z,25.02
2022-09-12T13:15:50.873Z,25.07
2022-09-12T13:17:28.763Z,25.10
2022-09-12T13:19:05.767Z,25.13
2022-09-12T13:20:48.488Z,25.29
2022-09-12T13:22:23.753Z,25.32
2022-09-12T13:24:04.854Z,25.37
2022-09-12T13:25:39.451Z,25.34
2022-09-12T13:27:19.989Z,25.14
2022-09-12T13:29:10.902Z,25.00
2022-09-12T13:30:47.719Z,25.03
2022-09-12T13:32:21.020Z,25.13
2022-09-12T13:33:57.186Z,25.16
2022-09-12T13:35:41.364Z,25.23
2022-09-12T13:37:30.288Z,25.28
2022-09-12T13:39:16.027Z,25.40
2022-09-12T13:41:10.925Z,25.47
2022-09-12T13:42:49.003Z,25.16
2022-09-12T13:44:24.581Z,25.01
2022-09-12T13:45:57.922Z,24.85
2022-09-12T13:47:34.636Z,24.71
2022-09-12T13:49:21.309Z,24.56
2022-09-12T13:51:00.295Z,24.55
2022-09-12T13:52:35.999Z,24.43
2022-09-12T13:54:09.233Z,24.48
2022-09-12T13:55:44.917Z,24.64
2022-09-12T13:57:34.412Z,24.82
2022-09-12T13:59:13.405Z,24.93
2022-09-12T14:00:46.762Z,25.02
2022-09-12T14:02:20.765Z,25.21
2022-09-12T14:04:13.459Z,25.27
2022-09-12T14:05:56.837Z,25.28
2022-09-12T14:07:30.039Z,25.36
2022-09-12T14:09:03.653Z,25.55
2022-09-12T14:10:39.521Z,25.62
2022-09-12T14:12:20.695Z,25.60
2022-09-12T14:13:56.147Z,25.61
2022-09-12T14:15:37.073Z,25.41
2022-09-12T14:17:19.810Z,25.32
2022-09-12T14:18:55.440Z,25.24
2022-09-12T14:20:32.693Z,25.14
2022-09-12T14:22:06.002Z,25.18
2022-09-12T14:23:42.841Z,25.19
2022-09-12T14:25:17.509Z,25.21
2022-09-12T14:26:52.657Z,25.24
2022-09-12T14:28:28.581Z,25.29
2022-09-12T14:30:07.692Z,25.36
2022-09-12T14:31:41.426Z,25.35
2022-09-12T14:33:20.950Z,25.21
2022-09-12T14:35:09.288Z,25.03
2022-09-12T14:36:48.818Z,24.94
2022-09-12T14:38:32.566Z,24.79
2022-09-12T14:40:17.365Z,24.56
2022-09-12T14:41:52.757Z,24.47
2022-09-12T14:43:29.866Z,24.52
2022-09-12T14:45:16.079Z,24.48
2022-09-12T14:46:50.399Z,24.56
2022-09-12T14:48:25.161Z,24.57
2022-09-12T14:49:58.549Z,24.66
2022-09-12T14:51:36.578Z,24.70
2022-09-12T14:53:25.572Z,24.52
2022-09-12T14:55:01.909Z,24.64
2022-09-12T14:56:42.536Z,24.75
2022-09-12T14:58:23.841Z,24.87
2022-09-12T15:00:20.567Z,24.84
2022-09-12T15:02:22.560Z,24.82
2022-09-12T15:03:57.682Z,24.77
2022-09-12T15:05:31.540Z,24.69
2022-09-12T15:07:16.059Z,24.55
2022-09-12T15:08:49.358Z,24.49
2022-09-12T15:10:25.575Z,24.52
2022-09-12T15:11:58.920Z,24.52
2022-09-12T15:13:41.128Z,24.47
2022-09-12T15:15:17.335Z,24.46
2022-09-12T15:16:50.491Z,24.42
2022-09-12T15:18:25.945Z,24.39
2022-09-12T15:19:58.081Z,24.29
2022-09-12T15:21:31.328Z,24.16
2022-09-12T15:23:03.630Z,24.19
2022-09-12T15:24:39.214Z,24.23
2022-09-12T15:26:17.923Z,24.15
2022-09-12T15:27:56.801Z,24.10
2022-09-12T15:29:30.050Z,24.19
2022-09-12T15:31:08.641Z,24.26
2022-09-12T15:32:43.523Z,24.22
2022-09-12T15:34:16.857Z,24.14
2022-09-12T15:35:49.302Z,24.10
2022-09-12T15:37:24.596Z,24.03
2022-09-12T15:38:57.885Z,23.97
2022-09-12T15:40:30.118Z,23.84
2022-09-12T15:42:03.313Z,23.79
2022-09-12T15:43:36.773Z,23.75
2022-09-12T15:45:19.629Z,23.71
2022-09-12T15:46:54.327Z,23.68
2022-09-12T15:48:27.562Z,23.68
2022-09-12T15:49:59.971Z,23.67
2022-09-12T15:51:33.099Z,23.66
2022-09-12T15:53:06.289Z,23.63
2022-09-12T15:54:39.412Z,23.55
2022-09-12T15:56:13.097Z,23.55
2022-09-12T15:57:46.766Z,23.52
2022-09-12T15:59:19.961Z,23.44
2022-09-12T16:00:53.163Z,23.36
2022-09-12T16:02:27.032Z,23.26
2022-09-12T16:04:00.468Z,23.15
2022-09-12T16:05:34.457Z,23.18
2022-09-12T16:07:07.675Z,23.16
2022-09-12T16:08:41.118Z,23.14
2022-09-12T16:10:17.980Z,23.07
2022-09-12T16:11:52.418Z,23.06
2022-09-12T16:13:25.952Z,23.00
2022-09-12T16:14:59.757Z,22.99
2022-09-12T16:16:33.057Z,22.97
2022-09-12T16:18:08.059Z,22.95
2022-09-12T16:19:41.289Z,22.81
2022-09-12T16:21:15.829Z,22.80
2022-09-12T16:22:49.659Z,22.75
2022-09-12T16:24:23.172Z,22.70
2022-09-12T16:25:59.914Z,22.68
2022-09-12T16:27:34.262Z,22.68
2022-09-12T16:29:07.409Z,22.63
2022-09-12T16:30:40.603Z,22.57
2022-09-12T16:32:13.820Z,22.53
2022-09-12T16:33:48.867Z,22.47
2022-09-12T16:35:22.581Z,22.49
2022-09-12T16:36:55.846Z,22.43
2022-09-12T16:38:29.084Z,22.40
2022-09-12T16:40:02.801Z,22.36
2022-09-12T16:41:36.061Z,22.33
2022-09-12T16:43:09.205Z,22.26
2022-09-12T16:44:42.734Z,22.17
2022-09-12T16:46:18.298Z,22.15
2022-09-12T16:47:51.603Z,22.10
2022-09-12T16:49:26.309Z,22.04
2022-09-12T16:51:01.993Z,21.98
2022-09-12T16:52:35.668Z,21.92
2022-09-12T16:54:09.050Z,21.87
2022-09-12T16:55:49.785Z,21.83
2022-09-12T16:57:23.396Z,21.82
2022-09-12T16:58:57.080Z,21.76
2022-09-12T17:00:30.326Z,21.72
2022-09-12T17:02:03.972Z,21.70
2022-09-12T17:03:37.338Z,21.66
2022-09-12T17:05:12.408Z,21.62
2022-09-12T17:06:45.605Z,21.61
2022-09-12T17:08:18.858Z,21.58
2022-09-12T17:09:52.119Z,21.56
2022-09-12T17:11:29.735Z,21.54
2022-09-12T17:13:03.734Z,21.50
2022-09-12T17:14:36.962Z,21.45
2022-09-12T17:16:12.836Z,21.44
2022-09-12T17:17:47.424Z,21.38
2022-09-12T17:19:22.421Z,21.37
2022-09-12T17:20:55.987Z,21.34
2022-09-12T17:22:29.105Z,21.28
2022-09-12T17:24:03.760Z,21.24
2022-09-12T17:25:37.065Z,21.18
2022-09-12T17:27:10.306Z,21.16
2022-09-12T17:28:43.941Z,21.11
2022-09-12T17:30:17.698Z,21.02
2022-09-12T17:31:50.842Z,20.96
2022-09-12T17:33:23.222Z,20.92
2022-09-12T17:34:56.718Z,20.89
2022-09-12T17:36:32.932Z,20.83
2022-09-12T17:38:06.545Z,20.74
2022-09-12T17:39:39.714Z,20.71
2022-09-12T17:41:16.080Z,20.66
2022-09-12T17:42:49.748Z,20.58
2022-09-12T17:44:24.284Z,20.56
2022-09-12T17:45:56.888Z,20.54
2022-09-12T17:47:30.091Z,20.51
2022-09-12T17:49:06.291Z,20.50
2022-09-12T17:50:40.526Z,20.47
2022-09-12T17:52:15.078Z,20.45
2022-09-12T17:53:47.610Z,20.47
2022-09-12T17:55:21.344Z,20.48
2022-09-12T17:56:56.261Z,20.45
2022-09-12T17:58:29.518Z,20.45
2022-09-12T18:00:02.864Z,20.42
2022-09-12T18:02:02.730Z,20.35
2022-09-12T18:03:35.326Z,20.37
2022-09-12T18:05:10.461Z,20.36
2022-09-12T18:06:48.101Z,20.35
2022-09-12T18:08:24.400Z,20.31
2022-09-12T18:09:58.302Z,20.25
2022-09-12T18:11:31.467Z,20.27
2022-09-12T18:13:04.802Z,20.24
2022-09-12T18:14:38.635Z,20.22
2022-09-12T18:16:12.536Z,20.18
2022-09-12T18:17:45.854Z,20.16
2022-09-12T18:19:19.371Z,20.13
2022-09-12T18:20:52.670Z,20.15
2022-09-12T18:22:25.887Z,20.07
2022-09-12T18:24:01.112Z,20.10
2022-09-12T18:25:34.329Z,20.08
2022-09-12T18:27:07.856Z,20.07
2022-09-12T18:28:43.601Z,20.04
2022-09-12T18:30:22.145Z,20.00
2022-09-12T18:31:55.428Z,19.99
2022-09-12T18:33:29.179Z,19.95
2022-09-12T18:35:02.474Z,19.98
2022-09-12T18:36:35.685Z,19.97
2022-09-12T18:38:08.957Z,19.98
2022-09-12T18:39:44.054Z,19.95
2022-09-12T18:41:19.328Z,19.91
2022-09-12T18:42:53.159Z,19.89
2022-09-12T18:44:26.414Z,19.91
2022-09-12T18:46:04.720Z,19.87
2022-09-12T18:47:37.999Z,19.88
2022-09-12T18:49:11.171Z,19.85
2022-09-12T18:50:44.537Z,19.83
2022-09-12T18:52:19.136Z,19.80
2022-09-12T18:53:54.948Z,19.76
2022-09-12T18:55:31.269Z,19.76
2022-09-12T18:57:04.867Z,19.76
2022-09-12T18:58:38.905Z,19.74
2022-09-12T19:00:13.749Z,19.72
2022-09-12T19:01:47.323Z,19.68
2022-09-12T19:03:19.467Z,19.66
2022-09-12T19:04:53.050Z,19.63
2022-09-12T19:06:27.824Z,19.60
2022-09-12T19:08:00.942Z,19.60
2022-09-12T19:09:34.699Z,19.58
2022-09-12T19:11:11.468Z,19.58
2022-09-12T19:12:44.791Z,19.55
2022-09-12T19:14:20.102Z,19.58
2022-09-12T19:15:53.341Z,19.54
2022-09-12T19:17:31.742Z,19.53
2022-09-12T19:19:06.245Z,19.50
2022-09-12T19:20:39.470Z,19.48
2022-09-12T19:22:12.674Z,19.44
2022-09-12T19:23:47.043Z,19.42
2022-09-12T19:25:20.297Z,19.37
2022-09-12T19:26:55.035Z,19.34
2022-09-12T19:28:28.150Z,19.35
2022-09-12T19:30:01.713Z,19.33
2022-09-12T19:31:35.392Z,19.30
2022-09-12T19:33:08.972Z,19.29
2022-09-12T19:34:42.191Z,19.26
2022-09-12T19:36:43.311Z,19.24
2022-09-12T19:38:11.370Z,19.20
2022-09-12T19:39:46.031Z,19.17
2022-09-12T19:41:20.598Z,19.09
2022-09-12T19:42:55.313Z,19.05
2022-09-12T19:44:29.279Z,19.08
2022-09-12T19:46:03.351Z,19.07
2022-09-12T19:47:36.888Z,19.10
2022-09-12T19:49:11.857Z,19.09
2022-09-12T19:50:45.223Z,19.13
2022-09-12T19:52:18.514Z,19.17
2022-09-12T19:53:52.502Z,19.20
2022-09-12T19:55:25.921Z,19.18
2022-09-12T19:56:59.106Z,19.18
2022-09-12T19:58:39.184Z,19.21
2022-09-12T20:00:13.650Z,19.24
2022-09-12T20:01:46.992Z,19.26
2022-09-12T20:03:20.323Z,19.28
2022-09-12T20:04:53.459Z,19.29
2022-09-12T20:06:27.985Z,19.31
2022-09-12T20:08:01.239Z,19.30
2022-09-12T20:09:35.408Z,19.30
2022-09-12T20:11:09.483Z,19.27
2022-09-12T20:12:45.523Z,19.27
2022-09-12T20:14:21.424Z,19.24
2022-09-12T20:15:54.910Z,19.20
2022-09-12T20:17:28.128Z,19.21
2022-09-12T20:19:03.723Z,19.18
2022-09-12T20:20:37.133Z,19.11
2022-09-12T20:22:10.296Z,19.15
2022-09-12T20:23:43.759Z,19.13
2022-09-12T20:25:17.667Z,19.18
2022-09-12T20:26:51.002Z,19.22
2022-09-12T20:28:24.301Z,19.24
2022-09-12T20:29:59.029Z,19.26
2022-09-12T20:31:33.599Z,19.25
2022-09-12T20:33:06.814Z,19.29
2022-09-12T20:34:40.003Z,19.28
2022-09-12T20:36:15.634Z,19.28
2022-09-12T20:37:48.948Z,19.22
2022-09-12T20:39:24.532Z,19.22
2022-09-12T20:40:57.948Z,19.22
2022-09-12T20:42:31.213Z,19.23
2022-09-12T20:44:05.012Z,19.25
2022-09-12T20:45:43.030Z,19.27
2022-09-12T20:47:16.488Z,19.28
2022-09-12T20:48:49.689Z,19.26
2022-09-12T20:50:23.265Z,19.33
2022-09-12T20:51:56.598Z,19.35
2022-09-12T20:53:34.679Z,19.36